Saginaw, Arkansas
Current Conditions -  °F | °C
As of 5:56 AM on Sunday 23 Nov 2014 (Local Time) from KADF Reporting Station
Light Rain Light Rain  
Wind Chill: 59°   Ceiling: 500
Heat Index: 59°   Visibility: 4mi
Dew Point: 59°   Wind: 9mph
Humidity: 100%   Direction: 150°SSE
Pressure: 29.65"   Gusts: NA
Location:  34.2003°N, 92.9301°W
Report Text: KADF 231156Z AUTO 15008KT 4SM -RA BR OVC005 15/15 A2965 RMK AO2 55017 60012 70013 T01500150 10155 20138 CIG 003V008 RAB19 P0001 SLP055
Loading
Personal Weather Stations






























Interactive Weather Map New forecast layout! Learn more

10-Day Weather Forecast

Advertisements
Track Severe Weather on mobile